createdAt,value
2017-11-24T00:00:28.006Z,232.52
2017-11-24T00:01:03.516Z,230.72
2017-11-24T00:01:38.626Z,231.03
2017-11-24T00:02:13.816Z,231.94
2017-11-24T00:02:49.194Z,223.07
2017-11-24T00:03:24.401Z,241.17
2017-11-24T00:03:59.615Z,239.35
2017-11-24T00:04:35.025Z,231.66
2017-11-24T00:05:10.301Z,233.45
2017-11-24T00:05:45.716Z,229.52
2017-11-24T00:06:21.099Z,234.04
2017-11-24T00:06:56.313Z,215.91
2017-11-24T00:07:31.610Z,220.48
2017-11-24T00:08:07.121Z,220.60
2017-11-24T00:08:42.297Z,217.59
2017-11-24T00:09:17.731Z,220.79
2017-11-24T00:09:53.215Z,241.87
2017-11-24T00:10:28.638Z,231.33
2017-11-24T00:11:04.207Z,237.85
2017-11-24T00:11:39.210Z,225.35
2017-11-24T00:12:14.793Z,213.57
2017-11-24T00:12:50.304Z,224.58
2017-11-24T00:13:25.594Z,241.59
2017-11-24T00:14:01.310Z,227.95
2017-11-24T00:14:36.523Z,168.27
2017-11-24T00:15:11.832Z,261.79
2017-11-24T00:15:46.911Z,256.34
2017-11-24T00:16:22.232Z,227.39
2017-11-24T00:16:57.623Z,226.90
2017-11-24T00:17:33.029Z,217.90
2017-11-24T00:18:08.113Z,204.55
2017-11-24T00:18:43.322Z,220.48
2017-11-24T00:19:18.801Z,235.57
2017-11-24T00:19:54.037Z,221.17
2017-11-24T00:20:29.426Z,235.30
2017-11-24T00:21:04.650Z,207.64
2017-11-24T00:21:39.926Z,226.43
2017-11-24T00:22:14.941Z,241.59
2017-11-24T00:22:50.425Z,228.68
2017-11-24T00:23:25.630Z,232.88
2017-11-24T00:24:00.811Z,256.70
2017-11-24T00:24:36.126Z,250.04
2017-11-24T00:25:12.148Z,359.01
2017-11-24T00:25:47.762Z,241.99
2017-11-24T00:26:22.847Z,212.86
2017-11-24T00:26:57.962Z,215.89
2017-11-24T00:27:33.656Z,223.95
2017-11-24T00:28:09.069Z,251.58
2017-11-24T00:28:43.949Z,244.13
2017-11-24T00:29:19.072Z,226.29
2017-11-24T00:29:54.445Z,246.64
2017-11-24T00:30:30.085Z,229.83
2017-11-24T00:31:05.463Z,224.60
2017-11-24T00:31:40.576Z,263.90
2017-11-24T00:32:15.752Z,233.45
2017-11-24T00:32:51.270Z,249.42
2017-11-24T00:33:29.573Z,220.42
2017-11-24T00:34:01.310Z,233.30
2017-11-24T00:34:36.592Z,208.34
2017-11-24T00:35:12.098Z,223.70
2017-11-24T00:35:47.409Z,220.23
2017-11-24T00:36:22.716Z,213.54
2017-11-24T00:36:58.103Z,229.52
2017-11-24T00:37:33.310Z,211.44
2017-11-24T00:38:08.393Z,231.06
2017-11-24T00:38:43.710Z,232.84
2017-11-24T00:39:18.892Z,239.04
2017-11-24T00:39:54.505Z,237.45
2017-11-24T00:40:29.816Z,267.70
2017-11-24T00:41:04.952Z,250.16
2017-11-24T00:41:40.031Z,209.07
2017-11-24T00:42:15.449Z,225.19
2017-11-24T00:42:50.932Z,225.51
2017-11-24T00:43:26.438Z,234.53
2017-11-24T00:44:01.723Z,233.27
2017-11-24T00:44:37.470Z,226.55
2017-11-24T00:45:12.853Z,216.87
2017-11-24T00:45:48.062Z,217.09
2017-11-24T00:46:23.168Z,220.32
2017-11-24T00:46:58.283Z,239.80
2017-11-24T00:47:33.466Z,215.19
2017-11-24T00:48:08.986Z,235.25
2017-11-24T00:48:44.264Z,228.73
2017-11-24T00:49:19.506Z,231.18
2017-11-24T00:49:54.654Z,218.75
2017-11-24T00:50:29.970Z,239.83
2017-11-24T00:51:05.261Z,209.55
2017-11-24T00:51:40.605Z,246.19
2017-11-24T00:52:15.987Z,174.61
2017-11-24T00:52:51.696Z,255.74
2017-11-24T00:53:26.986Z,218.74
2017-11-24T00:54:01.905Z,192.33
2017-11-24T00:54:37.489Z,226.94
2017-11-24T00:55:12.603Z,216.42
2017-11-24T00:55:47.779Z,232.14
2017-11-24T00:56:23.392Z,199.62
2017-11-24T00:56:59.202Z,222.12
2017-11-24T00:57:34.512Z,204.83
2017-11-24T00:58:09.700Z,225.90
2017-11-24T00:58:45.308Z,221.91
2017-11-24T00:59:20.691Z,198.41
2017-11-24T00:59:56.005Z,149.82
2017-11-24T01:00:31.101Z,214.29
2017-11-24T01:01:06.796Z,198.37
2017-11-24T01:01:42.476Z,191.55
2017-11-24T01:02:17.716Z,234.07
2017-11-24T01:02:53.497Z,231.96
2017-11-24T01:03:28.918Z,216.76
2017-11-24T01:04:04.196Z,176.13
2017-11-24T01:04:39.420Z,250.96
2017-11-24T01:05:14.598Z,252.05
2017-11-24T01:05:49.712Z,225.14
2017-11-24T01:06:24.997Z,195.45
2017-11-24T01:07:00.511Z,231.32
2017-11-24T01:07:36.122Z,206.91
2017-11-24T01:08:11.437Z,199.90
2017-11-24T01:08:46.854Z,213.69
2017-11-24T01:09:22.620Z,206.62
2017-11-24T01:09:58.103Z,236.34
2017-11-24T01:10:33.622Z,243.43
2017-11-24T01:11:08.705Z,208.49
2017-11-24T01:11:44.029Z,215.27
2017-11-24T01:12:19.521Z,250.48
2017-11-24T01:12:54.864Z,233.07
2017-11-24T01:13:30.241Z,205.97
2017-11-24T01:14:05.451Z,245.52
2017-11-24T01:14:40.632Z,193.04
2017-11-24T01:15:15.969Z,221.45
2017-11-24T01:15:51.136Z,148.35
2017-11-24T01:16:26.244Z,211.34
2017-11-24T01:17:01.579Z,220.31
2017-11-24T01:17:36.684Z,225.00
2017-11-24T01:18:12.314Z,204.81
2017-11-24T01:18:47.820Z,218.30
2017-11-24T01:19:23.182Z,222.87
2017-11-24T01:19:58.899Z,227.35
2017-11-24T01:20:34.380Z,227.87
2017-11-24T01:21:09.516Z,207.72
2017-11-24T01:21:44.492Z,243.17
2017-11-24T01:22:19.804Z,216.29
2017-11-24T01:22:54.981Z,218.36
2017-11-24T01:23:30.728Z,226.43
2017-11-24T01:24:05.908Z,225.56
2017-11-24T01:24:41.114Z,240.36
2017-11-24T01:25:16.406Z,224.81
2017-11-24T01:25:51.514Z,221.26
2017-11-24T01:26:26.998Z,212.66
2017-11-24T01:27:02.005Z,240.11
2017-11-24T01:27:36.985Z,221.11
2017-11-24T01:28:12.207Z,210.72
2017-11-24T01:28:47.516Z,183.14
2017-11-24T01:29:22.940Z,226.85
2017-11-24T01:29:58.949Z,215.76
2017-11-24T01:30:35.463Z,259.61
2017-11-24T01:31:10.646Z,213.53
2017-11-24T01:31:45.793Z,193.36
2017-11-24T01:32:20.845Z,248.87
2017-11-24T01:32:56.246Z,211.25
2017-11-24T01:33:31.636Z,218.64
2017-11-24T01:34:06.971Z,211.71
2017-11-24T01:34:42.166Z,210.97
2017-11-24T01:35:18.658Z,215.06
2017-11-24T01:35:53.842Z,197.47
2017-11-24T01:36:29.058Z,220.11
2017-11-24T01:37:04.136Z,227.44
2017-11-24T01:37:39.252Z,126.62
2017-11-24T01:38:14.432Z,231.97
2017-11-24T01:38:49.769Z,207.43
2017-11-24T01:39:25.091Z,204.18
2017-11-24T01:40:00.401Z,104.36
2017-11-24T01:40:35.392Z,224.11
2017-11-24T01:41:10.708Z,260.69
2017-11-24T01:41:45.893Z,274.74
2017-11-24T01:42:21.197Z,219.80
2017-11-24T01:42:56.381Z,245.96
2017-11-24T01:43:31.597Z,240.56
2017-11-24T01:44:07.080Z,179.05
2017-11-24T01:44:42.137Z,187.60
2017-11-24T01:45:17.613Z,215.53
2017-11-24T01:45:52.816Z,275.99
2017-11-24T01:46:28.095Z,231.10
2017-11-24T01:47:03.605Z,211.88
2017-11-24T01:47:38.994Z,207.28
2017-11-24T01:48:14.520Z,223.51
2017-11-24T01:48:49.703Z,222.52
2017-11-24T01:49:25.050Z,182.34
2017-11-24T01:50:00.232Z,97.70
2017-11-24T01:50:35.641Z,230.07
2017-11-24T01:51:10.831Z,213.54
2017-11-24T01:51:46.249Z,200.71
2017-11-24T01:52:21.436Z,21.83
2017-11-24T01:52:56.457Z,292.01
2017-11-24T01:53:32.036Z,182.66
2017-11-24T01:54:07.354Z,221.42
2017-11-24T01:54:42.355Z,144.33
2017-11-24T01:55:17.765Z,351.53
2017-11-24T01:55:53.048Z,159.23
2017-11-24T01:56:28.262Z,221.49
2017-11-24T01:57:03.554Z,249.89
2017-11-24T01:57:38.469Z,210.00
2017-11-24T01:58:13.962Z,202.07
2017-11-24T01:58:49.206Z,78.32
2017-11-24T01:59:24.573Z,179.87
2017-11-24T02:00:00.017Z,156.11
2017-11-24T02:00:35.927Z,86.00
2017-11-24T02:01:11.509Z,210.00
2017-11-24T02:01:46.593Z,191.49
2017-11-24T02:02:22.107Z,171.02
2017-11-24T02:02:57.592Z,196.99
2017-11-24T02:03:32.901Z,229.56
2017-11-24T02:04:08.183Z,184.18
2017-11-24T02:04:43.638Z,37.00
2017-11-24T02:05:18.829Z,221.15
2017-11-24T02:05:54.037Z,213.33
2017-11-24T02:06:29.221Z,115.45
2017-11-24T02:07:04.526Z,198.80
2017-11-24T02:07:39.814Z,201.71
2017-11-24T02:08:15.025Z,127.07
2017-11-24T02:08:50.321Z,65.23
2017-11-24T02:09:25.924Z,145.15
2017-11-24T02:10:01.241Z,108.35
2017-11-24T02:10:36.545Z,150.54
2017-11-24T02:11:11.860Z,214.57
2017-11-24T02:11:47.067Z,232.71
2017-11-24T02:12:22.549Z,219.47
2017-11-24T02:12:58.063Z,110.53
2017-11-24T02:13:33.351Z,46.83
2017-11-24T02:14:08.663Z,197.57
2017-11-24T02:14:43.877Z,159.22
2017-11-24T02:15:19.389Z,169.32
2017-11-24T02:15:54.471Z,8.26
2017-11-24T02:16:29.781Z,103.09
2017-11-24T02:17:04.866Z,64.15
2017-11-24T02:17:40.381Z,128.70
2017-11-24T02:18:15.663Z,249.63
2017-11-24T02:18:51.100Z,5.20
2017-11-24T02:19:26.981Z,89.58
2017-11-24T02:20:02.418Z,218.03
2017-11-24T02:20:37.604Z,218.26
2017-11-24T02:21:12.926Z,227.61
2017-11-24T02:21:48.404Z,218.26
2017-11-24T02:22:23.714Z,209.38
2017-11-24T02:22:58.803Z,219.70
2017-11-24T02:23:34.110Z,213.48
2017-11-24T02:24:09.492Z,227.85
2017-11-24T02:24:44.601Z,214.45
2017-11-24T02:25:20.054Z,253.61
2017-11-24T02:25:55.345Z,246.19
2017-11-24T02:26:30.527Z,202.05
2017-11-24T02:27:05.645Z,234.55
2017-11-24T02:27:40.726Z,228.56
2017-11-24T02:28:16.231Z,222.52
2017-11-24T02:28:51.638Z,224.22
2017-11-24T02:29:26.833Z,187.45
2017-11-24T02:30:01.751Z,282.89
2017-11-24T02:30:37.168Z,57.60
2017-11-24T02:31:12.557Z,248.33
2017-11-24T02:31:48.100Z,227.39
2017-11-24T02:32:23.376Z,185.14
2017-11-24T02:32:58.690Z,215.86
2017-11-24T02:33:33.975Z,238.60
2017-11-24T02:34:09.288Z,228.79
2017-11-24T02:34:44.871Z,227.22
2017-11-24T02:35:20.715Z,214.78
2017-11-24T02:35:56.096Z,204.45
2017-11-24T02:36:31.408Z,259.70
2017-11-24T02:37:06.896Z,221.88
2017-11-24T02:37:42.305Z,212.95
2017-11-24T02:38:17.691Z,220.32
2017-11-24T02:38:53.199Z,216.42
2017-11-24T02:39:28.379Z,2.65
2017-11-24T02:40:03.919Z,237.19
2017-11-24T02:40:39.206Z,75.51
2017-11-24T02:41:14.217Z,181.99
2017-11-24T02:41:49.203Z,182.37
2017-11-24T02:42:24.416Z,201.30
2017-11-24T02:42:59.801Z,209.95
2017-11-24T02:43:35.227Z,231.36
2017-11-24T02:44:10.499Z,233.26
2017-11-24T02:44:45.821Z,221.39
2017-11-24T02:45:21.123Z,229.52
2017-11-24T02:45:56.433Z,217.70
2017-11-24T02:46:31.824Z,221.92
2017-11-24T02:47:07.133Z,212.51
2017-11-24T02:47:42.620Z,303.69
2017-11-24T02:48:17.845Z,51.54
2017-11-24T02:48:53.127Z,70.35
2017-11-24T02:49:28.436Z,212.77
2017-11-24T02:50:03.521Z,201.74
2017-11-24T02:50:39.069Z,228.68
2017-11-24T02:51:14.547Z,283.33
2017-11-24T02:51:49.865Z,235.27
2017-11-24T02:52:24.949Z,268.98
2017-11-24T02:53:00.061Z,65.24
2017-11-24T02:53:35.440Z,31.64
2017-11-24T02:54:10.649Z,58.88
2017-11-24T02:54:46.034Z,166.38
2017-11-24T02:55:21.370Z,123.35
2017-11-24T02:55:56.959Z,193.91
2017-11-24T02:56:32.472Z,230.26
2017-11-24T02:57:07.658Z,183.79
2017-11-24T02:57:42.674Z,144.15
2017-11-24T02:58:17.966Z,126.83
2017-11-24T02:58:52.884Z,213.73
2017-11-24T02:59:28.588Z,130.58
2017-11-24T03:00:04.007Z,251.92
2017-11-24T03:00:39.725Z,228.31
2017-11-24T03:01:15.135Z,218.26
2017-11-24T03:01:50.527Z,215.31
2017-11-24T03:02:25.937Z,218.37
2017-11-24T03:03:01.122Z,205.68
2017-11-24T03:03:36.140Z,210.74
2017-11-24T03:04:11.424Z,194.86
2017-11-24T03:04:46.742Z,232.21
2017-11-24T03:05:22.050Z,155.06
2017-11-24T03:05:57.259Z,201.26
2017-11-24T03:06:32.847Z,246.71
2017-11-24T03:07:08.252Z,223.66
2017-11-24T03:07:43.440Z,194.15
2017-11-24T03:08:18.856Z,224.18
2017-11-24T03:08:53.933Z,213.62
2017-11-24T03:09:29.554Z,249.82
2017-11-24T03:10:04.534Z,256.37
2017-11-24T03:10:40.076Z,241.14
2017-11-24T03:11:15.355Z,226.77
2017-11-24T03:11:50.570Z,216.62
2017-11-24T03:12:25.953Z,223.51
2017-11-24T03:13:01.562Z,221.26
2017-11-24T03:13:37.059Z,228.00
2017-11-24T03:14:12.270Z,244.84
2017-11-24T03:14:47.651Z,238.30
2017-11-24T03:15:22.562Z,261.27
2017-11-24T03:15:57.675Z,251.50
2017-11-24T03:16:32.883Z,234.00
2017-11-24T03:17:08.172Z,218.70
2017-11-24T03:17:43.593Z,214.19
2017-11-24T03:18:19.090Z,222.90
2017-11-24T03:18:54.302Z,221.38
2017-11-24T03:19:29.694Z,237.84
2017-11-24T03:20:05.003Z,235.17
2017-11-24T03:20:40.232Z,239.36
2017-11-24T03:21:15.637Z,237.83
2017-11-24T03:21:51.019Z,189.37
2017-11-24T03:22:26.239Z,219.28
2017-11-24T03:23:01.714Z,214.42
2017-11-24T03:23:37.428Z,226.66
2017-11-24T03:24:13.566Z,265.83
2017-11-24T03:24:48.880Z,237.10
2017-11-24T03:25:24.060Z,236.32
2017-11-24T03:25:59.198Z,220.61
2017-11-24T03:26:34.279Z,213.54
2017-11-24T03:27:09.517Z,223.07
2017-11-24T03:27:44.803Z,220.20
2017-11-24T03:28:20.214Z,242.06
2017-11-24T03:28:55.207Z,233.49
2017-11-24T03:29:30.523Z,217.85
2017-11-24T03:30:05.806Z,213.88
2017-11-24T03:30:40.755Z,234.72
2017-11-24T03:31:16.037Z,237.24
2017-11-24T03:31:51.251Z,249.97
2017-11-24T03:32:26.630Z,232.52
2017-11-24T03:33:01.847Z,231.86
2017-11-24T03:33:37.423Z,215.36
2017-11-24T03:34:12.940Z,226.17
2017-11-24T03:34:48.322Z,230.39
2017-11-24T03:35:23.833Z,219.27
2017-11-24T03:35:59.453Z,260.90
2017-11-24T03:36:34.766Z,226.43
2017-11-24T03:37:10.153Z,217.26
2017-11-24T03:37:45.467Z,223.47
2017-11-24T03:38:20.750Z,232.61
2017-11-24T03:38:55.777Z,231.11
2017-11-24T03:39:31.156Z,227.99
2017-11-24T03:40:06.378Z,233.27
2017-11-24T03:40:41.591Z,223.79
2017-11-24T03:41:17.004Z,217.83
2017-11-24T03:41:52.185Z,227.22
2017-11-24T03:42:27.801Z,228.85
2017-11-24T03:43:03.084Z,240.11
2017-11-24T03:43:38.406Z,219.70
2017-11-24T03:44:13.499Z,249.19
2017-11-24T03:44:48.814Z,212.66
2017-11-24T03:45:23.886Z,237.09
2017-11-24T03:45:59.025Z,223.60
2017-11-24T03:46:34.322Z,246.74
2017-11-24T03:47:09.937Z,222.73
2017-11-24T03:47:45.217Z,217.52
2017-11-24T03:48:20.530Z,230.06
2017-11-24T03:48:55.815Z,246.74
2017-11-24T03:49:31.327Z,237.11
2017-11-24T03:50:06.612Z,232.52
2017-11-24T03:50:41.734Z,230.20
2017-11-24T03:51:17.142Z,228.64
2017-11-24T03:51:52.558Z,229.53
2017-11-24T03:52:27.637Z,243.83
2017-11-24T03:53:02.761Z,233.98
2017-11-24T03:53:38.131Z,236.88
2017-11-24T03:54:13.447Z,219.70
2017-11-24T03:54:48.931Z,151.05
2017-11-24T03:55:24.241Z,178.57
2017-11-24T03:55:59.546Z,199.89
2017-11-24T03:56:34.764Z,203.17
2017-11-24T03:57:09.851Z,243.83
2017-11-24T03:57:45.067Z,224.14
2017-11-24T03:58:20.351Z,212.66
2017-11-24T03:58:55.765Z,236.32
2017-11-24T03:59:30.953Z,220.32
2017-11-24T04:00:06.360Z,243.21
2017-11-24T04:00:41.441Z,254.43
2017-11-24T04:01:16.575Z,208.63
2017-11-24T04:01:52.159Z,244.33
2017-11-24T04:02:27.868Z,209.29
2017-11-24T04:03:03.362Z,246.74
2017-11-24T04:03:38.799Z,216.68
2017-11-24T04:04:14.181Z,359.86
2017-11-24T04:04:49.407Z,215.07
2017-11-24T04:05:24.691Z,212.05
2017-11-24T04:06:00.042Z,214.03
2017-11-24T04:06:35.519Z,239.79
2017-11-24T04:07:10.628Z,247.26
2017-11-24T04:07:45.910Z,249.57
2017-11-24T04:08:21.225Z,242.35
2017-11-24T04:08:56.610Z,317.16
2017-11-24T04:09:32.015Z,30.00
2017-11-24T04:10:07.210Z,207.92
2017-11-24T04:10:42.425Z,219.70
2017-11-24T04:11:17.821Z,218.26
2017-11-24T04:11:53.435Z,210.00
2017-11-24T04:12:28.816Z,210.00
2017-11-24T04:13:04.242Z,210.00
2017-11-24T04:13:39.337Z,210.00
2017-11-24T04:14:14.753Z,219.70
2017-11-24T04:14:50.035Z,145.17
2017-11-24T04:15:25.441Z,255.00
2017-11-24T04:16:00.630Z,285.71
2017-11-24T04:16:36.159Z,357.67
2017-11-24T04:17:11.355Z,232.22
2017-11-24T04:17:46.969Z,211.32
2017-11-24T04:18:22.165Z,210.00
2017-11-24T04:18:57.671Z,233.27
2017-11-24T04:19:32.954Z,255.00
2017-11-24T04:20:08.077Z,255.00
2017-11-24T04:20:43.354Z,221.95
2017-11-24T04:21:18.608Z,210.00
2017-11-24T04:21:53.790Z,22.13
2017-11-24T04:22:29.404Z,93.05
2017-11-24T04:23:04.700Z,190.63
2017-11-24T04:23:39.912Z,149.72
2017-11-24T04:24:15.333Z,140.01
2017-11-24T04:24:50.953Z,150.95
2017-11-24T04:25:26.238Z,14.48
2017-11-24T04:26:01.248Z,223.25
2017-11-24T04:26:36.556Z,112.10
2017-11-24T04:27:11.658Z,30.00
2017-11-24T04:27:47.040Z,30.00
2017-11-24T04:28:22.360Z,30.00
2017-11-24T04:28:57.744Z,30.00
2017-11-24T04:29:33.268Z,54.33
2017-11-24T04:30:08.441Z,74.29
2017-11-24T04:30:43.952Z,72.23
2017-11-24T04:31:19.179Z,209.55
2017-11-24T04:31:54.604Z,109.84
2017-11-24T04:32:29.891Z,48.20
2017-11-24T04:33:05.008Z,66.43
2017-11-24T04:33:40.289Z,87.76
2017-11-24T04:34:15.509Z,64.12
2017-11-24T04:34:50.683Z,81.97
2017-11-24T04:35:26.105Z,249.47
2017-11-24T04:36:01.583Z,248.91
2017-11-24T04:36:37.122Z,295.78
2017-11-24T04:37:12.407Z,309.33
2017-11-24T04:37:47.827Z,234.23
2017-11-24T04:38:22.909Z,126.35
2017-11-24T04:38:58.435Z,160.77
2017-11-24T04:39:33.840Z,177.29
2017-11-24T04:40:09.156Z,134.86
2017-11-24T04:40:44.539Z,105.69
2017-11-24T04:41:19.951Z,186.66
2017-11-24T04:41:55.356Z,141.93
2017-11-24T04:42:30.769Z,195.23
2017-11-24T04:43:06.068Z,160.82
2017-11-24T04:43:41.581Z,254.70
2017-11-24T04:44:16.671Z,76.61
2017-11-24T04:44:52.086Z,54.53
2017-11-24T04:45:27.469Z,75.00
2017-11-24T04:46:03.078Z,71.71
2017-11-24T04:46:38.392Z,74.22
2017-11-24T04:47:13.501Z,51.06
2017-11-24T04:47:49.080Z,105.84
2017-11-24T04:48:24.594Z,201.19
2017-11-24T04:48:59.878Z,249.58
2017-11-24T04:49:35.189Z,255.00
2017-11-24T04:50:10.475Z,255.72
2017-11-24T04:50:45.792Z,256.32
2017-11-24T04:51:21.175Z,69.58
2017-11-24T04:51:56.609Z,79.20
2017-11-24T04:52:31.914Z,83.26
2017-11-24T04:53:07.146Z,122.66
2017-11-24T04:53:42.852Z,57.50
2017-11-24T04:54:18.090Z,60.85
2017-11-24T04:54:53.404Z,70.16
2017-11-24T04:55:28.855Z,79.97
2017-11-24T04:56:04.143Z,77.22
2017-11-24T04:56:39.505Z,74.37
2017-11-24T04:57:14.710Z,73.68
2017-11-24T04:57:50.443Z,73.07
2017-11-24T04:58:25.753Z,77.84
2017-11-24T04:59:01.288Z,54.53
2017-11-24T04:59:36.505Z,72.19
2017-11-24T05:00:11.741Z,75.00
2017-11-24T05:00:47.347Z,78.46
2017-11-24T05:01:22.881Z,68.17
2017-11-24T05:01:58.112Z,59.91
2017-11-24T05:02:33.440Z,63.78
2017-11-24T05:03:08.643Z,81.13
2017-11-24T05:03:43.978Z,72.06
2017-11-24T05:04:19.184Z,94.19
2017-11-24T05:04:54.516Z,63.08
2017-11-24T05:05:29.928Z,74.31
2017-11-24T05:06:05.255Z,64.29
2017-11-24T05:06:40.761Z,94.06
2017-11-24T05:07:16.118Z,75.45
2017-11-24T05:07:51.532Z,70.97
2017-11-24T05:08:26.972Z,75.00
2017-11-24T05:09:02.583Z,77.09
2017-11-24T05:09:37.818Z,73.55
2017-11-24T05:10:13.125Z,75.00
2017-11-24T05:10:48.566Z,83.23
2017-11-24T05:11:24.090Z,85.23
2017-11-24T05:11:59.436Z,70.48
2017-11-24T05:12:34.737Z,77.75
2017-11-24T05:13:10.086Z,73.49
2017-11-24T05:13:45.789Z,70.28
2017-11-24T05:14:21.118Z,87.44
2017-11-24T05:14:56.322Z,70.73
2017-11-24T05:15:32.057Z,59.36
2017-11-24T05:16:07.368Z,73.60
2017-11-24T05:16:42.583Z,77.78
2017-11-24T05:17:17.805Z,105.98
2017-11-24T05:17:53.112Z,31.53
2017-11-24T05:18:28.192Z,123.11
2017-11-24T05:19:03.619Z,106.21
2017-11-24T05:19:38.906Z,72.34
2017-11-24T05:20:15.185Z,75.00
2017-11-24T05:20:50.464Z,75.00
2017-11-24T05:21:25.674Z,75.00
2017-11-24T05:22:01.081Z,75.00
2017-11-24T05:22:36.789Z,241.95
2017-11-24T05:23:12.072Z,255.00
2017-11-24T05:23:47.383Z,245.27
2017-11-24T05:24:22.570Z,255.00
2017-11-24T05:24:58.079Z,223.91
2017-11-24T05:25:32.965Z,235.15
2017-11-24T05:26:08.567Z,86.10
2017-11-24T05:26:43.885Z,63.35
2017-11-24T05:27:19.407Z,39.70
2017-11-24T05:27:54.784Z,30.00
2017-11-24T05:28:30.197Z,31.56
2017-11-24T05:29:05.444Z,141.56
2017-11-24T05:29:40.558Z,215.42
2017-11-24T05:30:15.545Z,255.00
2017-11-24T05:30:50.659Z,255.00
2017-11-24T05:31:25.942Z,255.00
2017-11-24T05:32:01.373Z,255.00
2017-11-24T05:32:36.661Z,255.00
2017-11-24T05:33:12.069Z,255.00
2017-11-24T05:33:47.556Z,255.00
2017-11-24T05:34:23.060Z,255.00
2017-11-24T05:34:58.542Z,255.00
2017-11-24T05:35:34.182Z,255.00
2017-11-24T05:36:09.346Z,255.00
2017-11-24T05:36:44.659Z,255.00
2017-11-24T05:37:20.063Z,255.00
2017-11-24T05:37:55.582Z,255.00
2017-11-24T05:38:30.977Z,255.00
2017-11-24T05:39:05.992Z,255.00
2017-11-24T05:39:41.685Z,255.00
2017-11-24T05:40:16.815Z,255.00
2017-11-24T05:40:51.998Z,255.00
2017-11-24T05:41:27.205Z,255.00
2017-11-24T05:42:02.589Z,255.00
2017-11-24T05:42:37.829Z,255.00
2017-11-24T05:43:13.221Z,255.00
2017-11-24T05:43:48.743Z,255.00
2017-11-24T05:44:23.936Z,255.00
2017-11-24T05:44:59.153Z,251.22
2017-11-24T05:45:34.638Z,255.00
2017-11-24T05:46:09.853Z,255.00
2017-11-24T05:46:45.130Z,255.00
2017-11-24T05:47:20.664Z,255.00
2017-11-24T05:47:56.148Z,255.00
2017-11-24T05:48:31.385Z,255.00
2017-11-24T05:49:06.767Z,255.00
2017-11-24T05:49:42.285Z,138.24
2017-11-24T05:50:18.188Z,120.00
2017-11-24T05:50:53.605Z,172.74
2017-11-24T05:51:28.882Z,221.55
2017-11-24T05:52:04.103Z,53.16
2017-11-24T05:52:39.505Z,30.00
2017-11-24T05:53:14.818Z,23.01
2017-11-24T05:53:50.205Z,80.02
2017-11-24T05:54:26.019Z,144.09
2017-11-24T05:55:01.005Z,210.00
2017-11-24T05:55:36.115Z,210.00
2017-11-24T05:56:11.520Z,36.62
2017-11-24T05:56:46.961Z,76.58
2017-11-24T05:57:22.459Z,177.92
2017-11-24T05:57:57.871Z,78.41
2017-11-24T05:58:32.954Z,75.72
2017-11-24T05:59:08.079Z,144.91
2017-11-24T05:59:43.498Z,203.44
2017-11-24T06:00:18.813Z,193.30
2017-11-24T06:00:54.103Z,139.22
2017-11-24T06:01:29.524Z,217.29
2017-11-24T06:02:05.104Z,293.90
2017-11-24T06:02:40.239Z,197.34
2017-11-24T06:03:15.928Z,216.70
2017-11-24T06:03:51.248Z,102.50
2017-11-24T06:04:26.875Z,130.93
2017-11-24T06:05:02.309Z,184.85
2017-11-24T06:05:37.621Z,257.82
2017-11-24T06:06:12.956Z,243.41
2017-11-24T06:06:48.169Z,211.06
2017-11-24T06:07:23.406Z,168.01
2017-11-24T06:07:58.841Z,18.95
2017-11-24T06:08:34.282Z,24.75
2017-11-24T06:09:09.886Z,207.67
2017-11-24T06:09:45.334Z,221.26
2017-11-24T06:10:20.532Z,280.27
2017-11-24T06:10:55.782Z,293.57
2017-11-24T06:11:30.872Z,338.42
2017-11-24T06:12:06.103Z,174.40
2017-11-24T06:12:41.241Z,95.21
2017-11-24T06:13:16.469Z,232.92
2017-11-24T06:13:51.799Z,35.20
2017-11-24T06:14:27.135Z,94.76
2017-11-24T06:15:02.540Z,291.23
2017-11-24T06:15:38.478Z,210.35
2017-11-24T06:16:13.779Z,219.90
2017-11-24T06:16:49.118Z,70.47
2017-11-24T06:17:24.524Z,210.73
2017-11-24T06:18:00.083Z,234.15
2017-11-24T06:18:35.503Z,4.52
2017-11-24T06:19:10.831Z,237.46
2017-11-24T06:19:46.336Z,237.13
2017-11-24T06:20:21.474Z,238.05
2017-11-24T06:20:56.805Z,214.33
2017-11-24T06:21:32.449Z,81.44
2017-11-24T06:22:08.058Z,208.66
2017-11-24T06:22:43.316Z,325.83
2017-11-24T06:23:18.930Z,206.22
2017-11-24T06:23:54.283Z,210.00
2017-11-24T06:24:30.189Z,207.34
2017-11-24T06:25:05.343Z,359.14
2017-11-24T06:25:40.551Z,255.00
2017-11-24T06:26:15.804Z,284.20
2017-11-24T06:26:51.104Z,30.00
2017-11-24T06:27:26.543Z,30.00
2017-11-24T06:28:01.875Z,119.55
2017-11-24T06:28:37.205Z,183.01
2017-11-24T06:29:12.714Z,219.68
2017-11-24T06:29:48.256Z,212.09
2017-11-24T06:30:23.536Z,347.42
2017-11-24T06:30:59.048Z,201.00
2017-11-24T06:31:34.140Z,84.63
2017-11-24T06:32:09.355Z,304.82
2017-11-24T06:32:44.668Z,298.97
2017-11-24T06:33:20.489Z,255.00
2017-11-24T06:33:55.566Z,199.09
2017-11-24T06:34:31.692Z,82.08
2017-11-24T06:35:07.073Z,240.06
2017-11-24T06:35:42.390Z,208.56
2017-11-24T06:36:18.067Z,253.23
2017-11-24T06:36:53.675Z,30.81
2017-11-24T06:37:29.067Z,209.22
2017-11-24T06:38:04.514Z,210.00
2017-11-24T06:38:40.319Z,283.95
2017-11-24T06:39:15.633Z,230.35
2017-11-24T06:39:51.115Z,268.01
2017-11-24T06:40:26.246Z,129.74
2017-11-24T06:41:01.529Z,255.00
2017-11-24T06:41:36.652Z,208.68
2017-11-24T06:42:11.941Z,210.00
2017-11-24T06:42:47.051Z,71.29
2017-11-24T06:43:22.467Z,75.00
2017-11-24T06:43:57.786Z,63.06
2017-11-24T06:44:33.168Z,69.53
2017-11-24T06:45:08.484Z,77.27
2017-11-24T06:45:43.673Z,73.05
2017-11-24T06:46:19.083Z,61.79
2017-11-24T06:46:54.471Z,68.52
2017-11-24T06:47:29.604Z,58.60
2017-11-24T06:48:04.714Z,73.07
2017-11-24T06:48:40.025Z,75.08
2017-11-24T06:49:15.314Z,84.96
2017-11-24T06:49:50.949Z,6.84
2017-11-24T06:50:26.428Z,77.05
2017-11-24T06:51:01.752Z,75.00
2017-11-24T06:51:37.232Z,40.48
2017-11-24T06:52:12.951Z,46.43
2017-11-24T06:52:47.939Z,83.59
2017-11-24T06:53:23.076Z,78.61
2017-11-24T06:53:58.466Z,71.96
2017-11-24T06:54:33.998Z,75.03
2017-11-24T06:55:09.178Z,45.28
2017-11-24T06:55:44.589Z,80.66
2017-11-24T06:56:19.777Z,83.32
2017-11-24T06:56:55.099Z,66.01
2017-11-24T06:57:30.176Z,70.82
2017-11-24T06:58:05.612Z,76.86
2017-11-24T06:58:40.895Z,69.16
2017-11-24T06:59:16.219Z,72.13
2017-11-24T06:59:51.511Z,88.46
2017-11-24T07:00:26.725Z,93.00
2017-11-24T07:01:02.204Z,87.92
2017-11-24T07:01:37.417Z,62.03
2017-11-24T07:02:12.505Z,61.77
2017-11-24T07:02:47.957Z,65.23
2017-11-24T07:03:23.269Z,31.37
2017-11-24T07:03:58.580Z,75.00
2017-11-24T07:04:33.800Z,68.03
2017-11-24T07:05:09.634Z,83.11
2017-11-24T07:05:45.143Z,77.43
2017-11-24T07:06:20.484Z,87.88
2017-11-24T07:06:56.102Z,68.28
2017-11-24T07:07:31.636Z,80.08
2017-11-24T07:08:07.054Z,76.45
2017-11-24T07:08:42.479Z,113.89
2017-11-24T07:09:17.874Z,60.20
2017-11-24T07:09:53.307Z,82.12
2017-11-24T07:10:28.916Z,67.28
2017-11-24T07:11:04.428Z,63.44
2017-11-24T07:11:40.125Z,66.27
2017-11-24T07:12:15.428Z,89.31
2017-11-24T07:12:50.918Z,97.15
2017-11-24T07:13:25.852Z,124.63
2017-11-24T07:14:01.150Z,83.58
2017-11-24T07:14:36.274Z,55.17
2017-11-24T07:15:11.749Z,51.13
2017-11-24T07:15:46.860Z,63.08
2017-11-24T07:16:22.649Z,112.06
2017-11-24T07:16:58.260Z,120.00
2017-11-24T07:17:33.147Z,179.83
2017-11-24T07:18:08.546Z,163.68
2017-11-24T07:18:43.869Z,44.12
2017-11-24T07:19:19.309Z,245.18
2017-11-24T07:19:54.594Z,155.59
2017-11-24T07:20:30.110Z,194.66
2017-11-24T07:21:05.607Z,201.65
2017-11-24T07:21:41.609Z,165.00
2017-11-24T07:22:17.083Z,157.79
2017-11-24T07:22:52.098Z,31.32
2017-11-24T07:23:27.511Z,198.79
2017-11-24T07:24:02.737Z,279.46
2017-11-24T07:24:38.423Z,240.91